Time;durP1;ratioP1;P1;durP2;ratioP2;P2;SDS_P1;SDS_P2;PMS_P1;PMS_P2;Temp;Humidity;BMP_temperature;BMP_pressure;BME280_temperature;BME280_humidity;BME280_pressure;Samples;Min_cycle;Max_cycle;Signal;HPM_P1;HPM_P2
2022/05/18 00:02:06;;;;;;;1.40;1.30;;;22.10;99.90;;;;;;5029721;28;20458;-79
2022/05/18 00:04:35;;;;;;;2.07;1.93;;;22.00;99.90;;;;;;5028298;28;20451;-80
2022/05/18 00:07:04;;;;;;;2.00;1.70;;;22.00;99.90;;;;;;5021012;28;20491;-81
2022/05/18 00:09:33;;;;;;;1.73;1.60;;;22.00;99.90;;;;;;5026456;28;20460;-80
2022/05/18 00:12:01;;;;;;;2.07;1.43;;;21.90;99.90;;;;;;5026850;28;20498;-81
2022/05/18 00:14:29;;;;;;;2.23;1.60;;;21.80;99.90;;;;;;5023224;28;20457;-80
2022/05/18 00:17:00;;;;;;;1.40;1.30;;;21.80;99.90;;;;;;5026698;28;20487;-81
2022/05/18 00:19:28;;;;;;;2.63;1.70;;;21.80;99.90;;;;;;5025218;28;21034;-80
2022/05/18 00:21:56;;;;;;;3.50;1.50;;;21.70;99.90;;;;;;5027719;28;21193;-79
2022/05/18 00:24:24;;;;;;;1.77;1.63;;;21.70;99.90;;;;;;5045786;28;20467;-81
2022/05/18 00:26:53;;;;;;;1.53;1.40;;;21.70;99.90;;;;;;5028805;28;20855;-81
2022/05/18 00:29:21;;;;;;;2.13;1.60;;;21.60;99.90;;;;;;5031973;28;20483;-82
2022/05/18 00:31:50;;;;;;;1.60;1.50;;;21.60;99.90;;;;;;5030871;28;20480;-81
2022/05/18 00:34:20;;;;;;;2.53;1.70;;;21.60;99.90;;;;;;5030374;28;20558;-82
2022/05/18 00:36:48;;;;;;;1.60;1.50;;;21.50;99.90;;;;;;5031259;28;20465;-84
2022/05/18 00:39:16;;;;;;;2.80;1.30;;;21.50;99.90;;;;;;5031193;28;20460;-81
2022/05/18 00:41:45;;;;;;;2.60;1.50;;;21.40;99.90;;;;;;5029081;28;20472;-81
2022/05/18 00:44:13;;;;;;;3.00;1.73;;;21.40;99.90;;;;;;5024354;28;20458;-80
2022/05/18 00:46:41;;;;;;;1.47;1.37;;;21.40;99.90;;;;;;5026032;28;20475;-81
2022/05/18 00:49:09;;;;;;;2.40;1.60;;;21.30;99.90;;;;;;5027846;28;20914;-81
2022/05/18 00:51:42;;;;;;;2.10;1.60;;;21.30;99.90;;;;;;5036109;28;20479;-83
2022/05/18 00:54:15;;;;;;;1.80;1.70;;;21.30;99.90;;;;;;5031465;28;20440;-81
2022/05/18 00:56:49;;;;;;;2.03;1.83;;;21.20;99.90;;;;;;5030897;28;21074;-82
2022/05/18 00:59:21;;;;;;;3.60;1.90;;;21.20;99.90;;;;;;5032902;28;20460;-82
2022/05/18 01:01:51;;;;;;;2.50;1.73;;;21.20;99.90;;;;;;5032969;28;20452;-82
2022/05/18 01:04:19;;;;;;;3.43;1.40;;;21.20;99.90;;;;;;5028998;28;20482;-80
2022/05/18 01:06:54;;;;;;;3.07;1.53;;;21.10;99.90;;;;;;5029301;28;20460;-80
2022/05/18 01:09:26;;;;;;;2.30;1.90;;;21.10;99.90;;;;;;5026629;28;20453;-80
2022/05/18 01:11:54;;;;;;;3.67;1.60;;;21.10;99.90;;;;;;5022954;28;20491;-79
2022/05/18 01:14:26;;;;;;;1.60;1.50;;;21.10;99.90;;;;;;5008077;28;20539;-80
2022/05/18 01:16:55;;;;;;;2.80;2.00;;;21.00;99.90;;;;;;5020429;28;20469;-79
2022/05/18 01:19:34;;;;;;;2.63;1.90;;;21.00;99.90;;;;;;5015695;28;20457;-80
2022/05/18 01:22:14;;;;;;;1.90;1.70;;;21.00;99.90;;;;;;5021818;28;20455;-80
2022/05/18 01:24:51;;;;;;;1.57;1.40;;;21.00;99.90;;;;;;5022345;28;20823;-80
2022/05/18 01:27:21;;;;;;;1.40;1.30;;;21.00;99.90;;;;;;5020971;28;20473;-81
2022/05/18 01:29:49;;;;;;;1.93;1.83;;;21.00;99.90;;;;;;5022826;28;20491;-80
2022/05/18 01:32:17;;;;;;;1.70;1.60;;;20.90;99.90;;;;;;5016505;28;20524;-80
2022/05/18 01:34:46;;;;;;;2.23;2.00;;;20.90;99.90;;;;;;5014475;28;20460;-80
2022/05/18 01:37:16;;;;;;;1.40;1.30;;;20.80;99.90;;;;;;5018818;28;20547;-79
2022/05/18 01:39:50;;;;;;;1.70;1.60;;;20.80;99.90;;;;;;5021175;28;20459;-80
2022/05/18 01:42:28;;;;;;;2.20;1.57;;;20.70;99.90;;;;;;5020917;28;20470;-80
2022/05/18 01:44:56;;;;;;;3.13;1.60;;;20.70;99.90;;;;;;5018395;28;20457;-80
2022/05/18 01:47:25;;;;;;;1.73;1.40;;;20.70;99.90;;;;;;5017892;28;20865;-80
2022/05/18 01:49:55;;;;;;;2.23;1.67;;;20.60;99.90;;;;;;5016579;28;20468;-81
2022/05/18 01:52:23;;;;;;;1.80;1.53;;;20.60;99.90;;;;;;5016211;28;21098;-81
2022/05/18 01:54:51;;;;;;;1.73;1.43;;;20.50;99.90;;;;;;5021037;28;20466;-81
2022/05/18 01:57:19;;;;;;;1.97;1.70;;;20.50;99.90;;;;;;5017544;28;21351;-81
2022/05/18 01:59:49;;;;;;;2.10;2.00;;;20.50;99.90;;;;;;5014924;28;20456;-80
2022/05/18 02:02:17;;;;;;;2.63;1.60;;;20.50;99.90;;;;;;5014401;28;20448;-81
2022/05/18 02:04:45;;;;;;;2.23;2.03;;;20.50;99.90;;;;;;5022721;28;20476;-81
2022/05/18 02:07:14;;;;;;;1.30;1.20;;;20.50;99.90;;;;;;5015387;28;20491;-80
2022/05/18 02:09:43;;;;;;;3.10;1.53;;;20.50;99.90;;;;;;5015658;28;20470;-81
2022/05/18 02:12:13;;;;;;;1.57;1.47;;;20.50;99.90;;;;;;5021416;28;20495;-81
2022/05/18 02:14:41;;;;;;;1.60;1.50;;;20.50;99.90;;;;;;5021937;28;20456;-81
2022/05/18 02:17:10;;;;;;;1.60;1.50;;;20.40;99.90;;;;;;5012974;28;20484;-80
2022/05/18 02:19:39;;;;;;;2.50;2.30;;;20.40;99.90;;;;;;5022371;28;21246;-80
2022/05/18 02:22:07;;;;;;;2.90;1.80;;;20.40;99.90;;;;;;5014393;28;20449;-80
2022/05/18 02:24:35;;;;;;;1.63;1.53;;;20.40;99.90;;;;;;5016929;28;20461;-79
2022/05/18 02:27:04;;;;;;;1.50;1.40;;;20.40;99.90;;;;;;5019388;28;20483;-81
2022/05/18 02:29:32;;;;;;;2.10;1.57;;;20.30;99.90;;;;;;5021003;28;20456;-81
2022/05/18 02:32:01;;;;;;;2.50;1.60;;;20.30;99.90;;;;;;5025553;28;20505;-81
2022/05/18 02:34:30;;;;;;;3.80;1.60;;;20.20;99.90;;;;;;5020700;28;20836;-80
2022/05/18 02:36:58;;;;;;;2.90;1.70;;;20.20;99.90;;;;;;5015190;28;20476;-79
2022/05/18 02:39:27;;;;;;;1.70;1.60;;;20.20;99.90;;;;;;5013703;28;20476;-80
2022/05/18 02:41:55;;;;;;;2.17;1.77;;;20.20;99.90;;;;;;5022118;28;21168;-79
2022/05/18 02:44:23;;;;;;;1.50;1.40;;;20.10;99.90;;;;;;5019009;28;20448;-80
2022/05/18 02:46:55;;;;;;;1.60;1.50;;;20.10;99.90;;;;;;5026260;28;20537;-80
2022/05/18 02:49:24;;;;;;;2.23;1.80;;;20.10;99.90;;;;;;5014217;28;20460;-80
2022/05/18 02:51:54;;;;;;;2.60;1.70;;;20.00;99.90;;;;;;5024677;28;20474;-80
2022/05/18 02:57:09;;;;;;;2.03;1.57;;;20.00;99.90;;;;;;5016719;28;20531;-80
2022/05/18 02:59:37;;;;;;;2.23;2.03;;;20.00;99.90;;;;;;5020377;28;20460;-80
2022/05/18 03:02:05;;;;;;;2.90;1.80;;;20.00;99.90;;;;;;5020177;28;20468;-80
2022/05/18 03:04:34;;;;;;;1.63;1.53;;;20.00;99.90;;;;;;5015281;28;20463;-80
2022/05/18 03:07:04;;;;;;;3.20;1.60;;;19.90;99.90;;;;;;5014195;28;20476;-80
2022/05/18 03:09:32;;;;;;;6.33;1.70;;;20.00;99.90;;;;;;5022622;28;20475;-81
2022/05/18 03:12:02;;;;;;;1.70;1.60;;;19.90;99.90;;;;;;5023300;28;20508;-80
2022/05/18 03:14:30;;;;;;;1.60;1.50;;;19.90;99.90;;;;;;5022084;28;20489;-81
2022/05/18 03:17:00;;;;;;;2.00;1.67;;;19.90;99.90;;;;;;5022867;28;20562;-81
2022/05/18 03:19:29;;;;;;;2.53;2.33;;;19.80;99.90;;;;;;5021309;28;20452;-79
2022/05/18 03:24:58;;;;;;;2.07;1.70;;;19.90;99.90;;;;;;4996953;28;20469;-80
2022/05/18 03:27:27;;;;;;;2.80;1.80;;;19.90;99.90;;;;;;4994039;28;20490;-79
2022/05/18 03:29:55;;;;;;;2.80;1.97;;;19.80;99.90;;;;;;5010261;28;20468;-80
2022/05/18 03:32:23;;;;;;;1.70;1.60;;;19.80;99.90;;;;;;5020489;28;20453;-80
2022/05/18 03:34:52;;;;;;;2.50;2.13;;;19.80;99.90;;;;;;5021071;28;20452;-80
2022/05/18 03:37:21;;;;;;;3.00;2.57;;;19.70;99.90;;;;;;5022966;28;20481;-80
2022/05/18 03:39:49;;;;;;;2.10;1.80;;;19.70;99.90;;;;;;5021433;28;20476;-80
2022/05/18 03:42:19;;;;;;;5.13;2.20;;;19.70;99.90;;;;;;5018483;28;20452;-81
2022/05/18 03:44:47;;;;;;;2.80;1.97;;;19.70;99.90;;;;;;5023451;28;20972;-80
2022/05/18 03:47:15;;;;;;;1.90;1.80;;;19.60;99.90;;;;;;5022747;28;20496;-81
2022/05/18 03:49:44;;;;;;;1.73;1.63;;;19.60;99.90;;;;;;5024167;28;20452;-81
2022/05/18 03:52:12;;;;;;;4.70;1.73;;;19.60;99.90;;;;;;5023190;28;20458;-81
2022/05/18 03:54:40;;;;;;;3.17;1.90;;;19.60;99.90;;;;;;5024367;28;20481;-81
2022/05/18 03:57:10;;;;;;;2.93;2.10;;;19.50;99.90;;;;;;5019931;28;20490;-81
2022/05/18 03:59:40;;;;;;;4.23;2.60;;;19.50;99.90;;;;;;5020500;28;20457;-80
2022/05/18 04:02:08;;;;;;;3.07;2.23;;;19.50;99.90;;;;;;5020778;28;20460;-81
2022/05/18 04:04:37;;;;;;;2.13;1.93;;;19.50;99.90;;;;;;5021951;28;20518;-80
2022/05/18 04:07:05;;;;;;;2.17;1.97;;;19.50;99.90;;;;;;5020246;28;20475;-80
2022/05/18 04:09:33;;;;;;;1.70;1.60;;;19.50;99.90;;;;;;5022378;28;20493;-80
2022/05/18 04:12:02;;;;;;;2.47;2.00;;;19.50;99.90;;;;;;5022101;28;20461;-80
2022/05/18 04:14:30;;;;;;;2.40;1.70;;;19.50;99.90;;;;;;5022245;28;20477;-81
2022/05/18 04:16:59;;;;;;;3.27;1.77;;;19.50;99.90;;;;;;5017686;28;20564;-81
2022/05/18 04:19:28;;;;;;;2.63;1.90;;;19.50;99.90;;;;;;5021812;28;20491;-78
2022/05/18 04:21:56;;;;;;;2.43;1.77;;;19.50;99.90;;;;;;5023331;28;20875;-78
2022/05/18 04:24:24;;;;;;;2.83;2.57;;;19.50;99.90;;;;;;5016982;28;20449;-79
2022/05/18 04:26:53;;;;;;;2.10;1.80;;;19.40;99.90;;;;;;5017049;28;20480;-78
2022/05/18 04:29:22;;;;;;;5.13;2.17;;;19.30;99.90;;;;;;5016389;28;20813;-79
2022/05/18 04:31:50;;;;;;;1.70;1.60;;;19.30;99.90;;;;;;5008982;28;20545;-79
2022/05/18 04:34:21;;;;;;;3.73;1.90;;;19.30;99.90;;;;;;5019516;28;20475;-80
2022/05/18 04:36:49;;;;;;;2.03;1.83;;;19.30;99.90;;;;;;5021408;28;20475;-74
2022/05/18 04:39:17;;;;;;;2.73;2.47;;;19.30;99.90;;;;;;5026191;28;20463;-75
2022/05/18 04:41:45;;;;;;;3.83;2.13;;;19.30;99.90;;;;;;5026972;28;20467;-81
2022/05/18 04:44:14;;;;;;;2.20;2.00;;;19.30;99.90;;;;;;5019491;28;20459;-81
2022/05/18 04:46:42;;;;;;;2.30;1.70;;;19.30;99.90;;;;;;5028031;28;20813;-78
2022/05/18 04:49:12;;;;;;;2.63;2.43;;;19.40;99.90;;;;;;5019518;28;20453;-80
2022/05/18 04:51:41;;;;;;;2.70;2.13;;;19.50;99.90;;;;;;5030522;28;20825;-82
2022/05/18 04:54:09;;;;;;;3.27;2.97;;;19.50;99.90;;;;;;5023498;28;20488;-80
2022/05/18 04:56:37;;;;;;;2.40;2.20;;;19.60;99.90;;;;;;5026699;28;20491;-81
2022/05/18 04:59:06;;;;;;;3.37;2.30;;;19.60;99.90;;;;;;5024242;28;20457;-80
2022/05/18 05:01:34;;;;;;;2.10;1.90;;;19.60;99.90;;;;;;5023805;28;20533;-82
2022/05/18 05:04:03;;;;;;;2.80;2.37;;;19.60;99.90;;;;;;5028281;28;20544;-82
2022/05/18 05:06:31;;;;;;;2.73;2.13;;;19.70;99.90;;;;;;5027075;28;20888;-81
2022/05/18 05:09:00;;;;;;;3.63;2.23;;;19.70;99.90;;;;;;5024498;28;20463;-81
2022/05/18 05:11:29;;;;;;;3.07;2.77;;;19.80;99.90;;;;;;5020312;28;20472;-82
2022/05/18 05:13:57;;;;;;;4.03;3.10;;;19.80;99.90;;;;;;5018702;28;20476;-81
2022/05/18 05:16:26;;;;;;;3.10;2.40;;;19.80;99.90;;;;;;5025530;28;20488;-82
2022/05/18 05:18:54;;;;;;;2.13;1.93;;;19.90;99.90;;;;;;5018626;28;20464;-82
2022/05/18 05:21:23;;;;;;;3.20;2.37;;;19.90;99.90;;;;;;5028878;28;20448;-81
2022/05/18 05:23:51;;;;;;;2.60;2.40;;;19.90;99.90;;;;;;5021059;28;20437;-80
2022/05/18 05:26:20;;;;;;;4.33;2.67;;;20.00;99.90;;;;;;5015707;28;20503;-78
2022/05/18 05:28:49;;;;;;;3.33;2.73;;;20.00;99.90;;;;;;5016489;28;20449;-79
2022/05/18 05:31:17;;;;;;;2.87;2.67;;;20.10;99.90;;;;;;5017081;28;20460;-79
2022/05/18 05:33:45;;;;;;;2.53;2.37;;;20.10;99.90;;;;;;5013694;28;20520;-79
2022/05/18 05:36:13;;;;;;;3.60;2.70;;;20.10;99.90;;;;;;5018675;28;20487;-79
2022/05/18 05:38:41;;;;;;;2.73;2.53;;;20.20;99.90;;;;;;5019135;28;20453;-79
2022/05/18 05:41:10;;;;;;;2.80;2.17;;;20.20;99.90;;;;;;5020667;28;20461;-79
2022/05/18 05:43:40;;;;;;;2.73;2.60;;;20.20;99.90;;;;;;5014846;28;20445;-79
2022/05/18 05:46:13;;;;;;;2.30;2.10;;;20.30;99.90;;;;;;5019345;28;20487;-79
2022/05/18 05:48:44;;;;;;;2.33;1.80;;;20.30;99.90;;;;;;5017600;28;20464;-79
2022/05/18 05:51:13;;;;;;;2.57;1.80;;;20.30;99.90;;;;;;5019531;28;20546;-79
2022/05/18 05:53:42;;;;;;;2.80;2.03;;;20.40;99.90;;;;;;5020854;28;20452;-79
2022/05/18 05:56:11;;;;;;;3.50;2.83;;;20.50;99.90;;;;;;5019598;28;20472;-79
2022/05/18 05:58:43;;;;;;;2.23;2.03;;;20.60;99.90;;;;;;5020650;28;20448;-79
2022/05/18 06:01:13;;;;;;;3.17;2.23;;;20.70;99.90;;;;;;5019606;28;20975;-79
2022/05/18 06:03:42;;;;;;;2.93;2.13;;;20.70;99.90;;;;;;5023044;28;20483;-79
2022/05/18 06:06:11;;;;;;;2.03;1.50;;;20.60;99.90;;;;;;5022906;28;20471;-79
2022/05/18 06:08:40;;;;;;;3.20;1.70;;;20.60;99.90;;;;;;5024866;28;20567;-79
2022/05/18 06:11:10;;;;;;;2.53;1.73;;;20.70;99.90;;;;;;5020364;28;20451;-78
2022/05/18 06:13:38;;;;;;;3.50;1.87;;;20.80;99.90;;;;;;5021396;28;20452;-79
2022/05/18 06:16:09;;;;;;;2.80;1.97;;;20.80;99.90;;;;;;5024811;28;20491;-78
2022/05/18 06:18:39;;;;;;;2.70;2.20;;;20.90;99.90;;;;;;5021721;28;20842;-78
2022/05/18 06:21:08;;;;;;;6.97;1.80;;;21.00;99.90;;;;;;5021392;28;20440;-79
2022/05/18 06:23:36;;;;;;;3.13;1.93;;;21.00;99.90;;;;;;5019621;28;20452;-79
2022/05/18 06:26:06;;;;;;;4.30;2.00;;;21.00;99.90;;;;;;5022635;28;20582;-79
2022/05/18 06:28:36;;;;;;;1.57;1.47;;;21.00;99.90;;;;;;5016366;28;20903;-79
2022/05/18 06:31:04;;;;;;;2.23;2.13;;;21.00;99.90;;;;;;5026017;28;20452;-80
2022/05/18 06:33:35;;;;;;;2.13;1.97;;;21.20;99.90;;;;;;5019336;28;20464;-79
2022/05/18 06:36:04;;;;;;;3.80;1.60;;;21.20;99.90;;;;;;5016928;28;20506;-79
2022/05/18 06:38:32;;;;;;;3.17;1.43;;;21.20;99.90;;;;;;5012678;28;20457;-79
2022/05/18 06:43:47;;;;;;;3.50;1.80;;;21.40;99.90;;;;;;5018721;28;20454;-79
2022/05/18 06:46:15;;;;;;;2.07;1.70;;;21.70;99.90;;;;;;5012954;28;20467;-79
2022/05/18 06:48:45;;;;;;;2.30;1.43;;;21.90;99.90;;;;;;5019055;28;20456;-79
2022/05/18 06:51:17;;;;;;;2.03;1.47;;;22.10;99.90;;;;;;5018258;28;20576;-79
2022/05/18 06:53:46;;;;;;;1.50;1.40;;;22.40;99.90;;;;;;5022094;28;20449;-79
2022/05/18 06:56:14;;;;;;;3.67;1.63;;;22.70;99.90;;;;;;5018114;28;21164;-79
2022/05/18 06:58:43;;;;;;;2.20;2.00;;;22.90;99.90;;;;;;5021854;28;20953;-79
2022/05/18 07:01:17;;;;;;;1.90;1.80;;;23.10;99.90;;;;;;5020638;28;20541;-79
2022/05/18 07:03:48;;;;;;;2.40;1.80;;;23.20;99.90;;;;;;5019429;28;20456;-80
2022/05/18 07:06:20;;;;;;;1.50;1.40;;;23.40;99.90;;;;;;5017545;28;20472;-79
2022/05/18 07:08:50;;;;;;;2.03;1.47;;;23.60;99.90;;;;;;5017643;28;20449;-79
2022/05/18 07:11:19;;;;;;;2.40;1.30;;;23.70;99.90;;;;;;5015567;28;20456;-79
2022/05/18 07:13:51;;;;;;;1.63;1.53;;;23.80;99.90;;;;;;5018396;28;20548;-79
2022/05/18 07:16:19;;;;;;;1.70;1.40;;;23.80;99.90;;;;;;5018023;28;20521;-79
2022/05/18 07:18:50;;;;;;;3.93;1.60;;;23.80;99.90;;;;;;5018340;28;20452;-79
2022/05/18 07:21:18;;;;;;;1.77;1.67;;;23.90;99.90;;;;;;5017818;28;20830;-79
2022/05/18 07:23:47;;;;;;;3.10;1.80;;;23.80;99.90;;;;;;5013128;28;20453;-78
2022/05/18 07:26:16;;;;;;;1.83;1.60;;;23.80;99.90;;;;;;5015739;28;20476;-78
2022/05/18 07:28:45;;;;;;;3.10;1.67;;;23.80;99.90;;;;;;5014589;28;20980;-78
2022/05/18 07:31:14;;;;;;;1.63;1.53;;;23.60;99.90;;;;;;5018644;28;20455;-79
2022/05/18 07:34:04;;;;;;;1.63;1.53;;;23.60;99.90;;;;;;5017577;28;20440;-79
2022/05/18 07:36:32;;;;;;;2.10;1.63;;;23.70;99.90;;;;;;5025803;28;20995;-79
2022/05/18 07:39:01;;;;;;;3.80;1.90;;;23.70;99.90;;;;;;5026126;28;20453;-80
2022/05/18 07:41:29;;;;;;;2.10;1.90;;;23.60;99.90;;;;;;5018055;28;20605;-78
2022/05/18 07:43:58;;;;;;;2.30;1.83;;;23.60;99.90;;;;;;5017003;28;20461;-79
2022/05/18 07:46:28;;;;;;;2.17;2.07;;;23.60;99.90;;;;;;5018340;28;20526;-79
2022/05/18 07:48:57;;;;;;;3.53;1.83;;;23.50;99.90;;;;;;5016279;28;20508;-78
2022/05/18 07:51:26;;;;;;;2.20;1.70;;;23.50;99.90;;;;;;5012979;28;20453;-78
2022/05/18 07:53:55;;;;;;;1.87;1.77;;;23.50;99.90;;;;;;5029876;28;20455;-78
2022/05/18 07:56:23;;;;;;;2.67;1.83;;;23.60;99.90;;;;;;5018341;28;21003;-78
2022/05/18 07:58:52;;;;;;;1.80;1.70;;;23.50;99.90;;;;;;5028613;28;20452;-78
2022/05/18 08:01:20;;;;;;;2.40;2.20;;;23.60;99.90;;;;;;5018818;28;20457;-78
2022/05/18 08:03:49;;;;;;;2.83;1.90;;;23.50;99.90;;;;;;5021075;28;21284;-78
2022/05/18 08:06:17;;;;;;;1.60;1.50;;;23.50;99.90;;;;;;5018141;28;20483;-77
2022/05/18 08:08:48;;;;;;;2.70;2.20;;;23.50;99.90;;;;;;5017632;28;20468;-78
2022/05/18 08:16:48;;;;;;;2.40;1.97;;;23.60;99.90;;;;;;5014887;28;20491;-78
2022/05/18 08:19:17;;;;;;;4.20;2.00;;;23.60;99.90;;;;;;5017992;28;20452;-78
2022/05/18 08:21:47;;;;;;;2.50;2.07;;;23.70;99.90;;;;;;5018531;28;20470;-78
2022/05/18 08:24:16;;;;;;;3.07;2.77;;;23.60;99.90;;;;;;5020459;28;20526;-77
2022/05/18 08:26:45;;;;;;;2.20;2.00;;;23.70;99.90;;;;;;5024340;28;20487;-78
2022/05/18 08:29:13;;;;;;;2.90;1.97;;;23.80;99.90;;;;;;5023648;28;20473;-78
2022/05/18 08:31:49;;;;;;;4.97;2.03;;;23.90;99.90;;;;;;5023829;28;20564;-78
2022/05/18 08:34:18;;;;;;;1.97;1.77;;;23.80;99.90;;;;;;5017202;28;20469;-78
2022/05/18 08:36:47;;;;;;;2.30;1.60;;;23.90;99.90;;;;;;5020411;28;20481;-77
2022/05/18 08:39:16;;;;;;;2.13;2.03;;;23.80;99.90;;;;;;5020169;28;20448;-78
2022/05/18 08:41:47;;;;;;;2.53;1.90;;;24.00;99.90;;;;;;5018786;28;20500;-78
2022/05/18 08:44:24;;;;;;;2.47;1.93;;;23.90;99.90;;;;;;5017971;28;21048;-78
2022/05/18 08:47:08;;;;;;;1.63;1.53;;;23.70;99.90;;;;;;5024997;28;20475;-77
2022/05/18 08:49:42;;;;;;;2.40;2.20;;;23.70;99.90;;;;;;5018347;28;20531;-78
2022/05/18 08:52:45;;;;;;;2.20;1.80;;;23.70;99.90;;;;;;5025105;28;21050;-78
2022/05/18 08:55:37;;;;;;;2.30;2.10;;;23.90;99.90;;;;;;5023349;28;20466;-77
2022/05/18 08:58:11;;;;;;;2.60;2.23;;;23.80;99.90;;;;;;5021235;28;20457;-77
2022/05/18 09:00:44;;;;;;;2.80;1.60;;;24.00;99.90;;;;;;5015461;28;20466;-78
2022/05/18 09:03:17;;;;;;;1.93;1.57;;;24.00;99.90;;;;;;5021690;28;20456;-78
2022/05/18 09:05:54;;;;;;;2.10;1.87;;;24.10;99.90;;;;;;5019675;28;20480;-78
2022/05/18 09:08:30;;;;;;;2.10;1.70;;;24.10;99.90;;;;;;5018554;28;20498;-77
2022/05/18 09:11:04;;;;;;;3.53;1.80;;;24.00;99.90;;;;;;5019717;28;21050;-77
2022/05/18 09:13:38;;;;;;;1.87;1.70;;;24.00;99.90;;;;;;5024865;28;20512;-77
2022/05/18 09:16:25;;;;;;;1.77;1.67;;;24.10;99.90;;;;;;5023798;28;20883;-78
2022/05/18 09:19:04;;;;;;;3.07;1.80;;;23.90;99.90;;;;;;5016476;28;20485;-78
2022/05/18 09:21:42;;;;;;;2.20;1.80;;;24.30;99.90;;;;;;5017918;28;20465;-78
2022/05/18 09:24:22;;;;;;;3.20;1.40;;;24.30;99.90;;;;;;5020342;28;20460;-78
2022/05/18 09:27:24;;;;;;;1.50;1.37;;;24.30;99.90;;;;;;5020035;28;20519;-77
2022/05/18 09:30:02;;;;;;;1.70;1.60;;;24.40;99.90;;;;;;5018661;28;20486;-77
2022/05/18 09:32:52;;;;;;;1.40;1.30;;;24.60;99.90;;;;;;5018312;28;20818;-77
2022/05/18 09:35:42;;;;;;;1.23;1.13;;;24.60;99.90;;;;;;5010990;28;20900;-78
2022/05/18 09:38:16;;;;;;;2.20;1.70;;;24.70;99.90;;;;;;5023391;28;20464;-78
2022/05/18 09:40:47;;;;;;;1.57;1.40;;;24.80;99.90;;;;;;5025628;28;20456;-77
2022/05/18 09:43:26;;;;;;;1.37;1.20;;;24.80;99.90;;;;;;5020143;28;20467;-78
2022/05/18 09:45:57;;;;;;;1.10;1.00;;;24.70;99.90;;;;;;5024982;28;20490;-78
2022/05/18 09:48:37;;;;;;;1.63;1.30;;;24.80;99.90;;;;;;5026690;28;21392;-78
2022/05/18 09:51:08;;;;;;;1.63;1.13;;;24.80;99.90;;;;;;5020059;28;20539;-78
2022/05/18 09:53:36;;;;;;;1.00;0.90;;;24.80;99.90;;;;;;5024305;28;20492;-78
2022/05/18 09:56:10;;;;;;;1.77;1.10;;;24.90;99.90;;;;;;5028691;28;20473;-79
2022/05/18 09:58:45;;;;;;;1.10;1.00;;;25.00;99.90;;;;;;5028046;28;20467;-78
2022/05/18 10:07:30;;;;;;;1.40;1.30;;;25.10;99.90;;;;;;4963053;28;20483;-77
2022/05/18 10:10:13;;;;;;;1.40;0.90;;;25.10;99.90;;;;;;4967393;28;20466;-77
2022/05/18 10:12:46;;;;;;;1.10;0.90;;;25.10;99.90;;;;;;5007550;28;20456;-78
2022/05/18 10:15:32;;;;;;;1.70;1.10;;;25.20;99.90;;;;;;5017751;28;20454;-78
2022/05/18 10:18:12;;;;;;;1.23;1.13;;;25.20;99.90;;;;;;5014358;28;20482;-78
2022/05/18 10:20:41;;;;;;;1.13;1.03;;;25.00;99.90;;;;;;5017864;28;20456;-78
2022/05/18 10:23:31;;;;;;;2.53;1.50;;;25.10;99.90;;;;;;5014661;28;20449;-81
2022/05/18 10:26:01;;;;;;;1.70;1.60;;;25.10;99.90;;;;;;5022786;28;20225;-80
2022/05/18 10:28:40;;;;;;;1.53;1.40;;;25.00;99.90;;;;;;5025567;28;20471;-82
2022/05/18 10:31:24;;;;;;;2.53;1.50;;;25.20;99.90;;;;;;5027355;28;20466;-81
2022/05/18 10:33:57;;;;;;;1.47;1.27;;;25.40;99.90;;;;;;5025410;28;20484;-80
2022/05/18 10:36:29;;;;;;;1.67;1.10;;;25.40;99.90;;;;;;5030139;28;20473;-79
2022/05/18 10:38:59;;;;;;;1.40;1.30;;;25.20;99.90;;;;;;5031146;28;20448;-82
2022/05/18 10:41:37;;;;;;;1.50;1.40;;;25.30;99.90;;;;;;5024656;28;20446;-80
2022/05/18 10:44:11;;;;;;;1.90;1.33;;;25.30;99.90;;;;;;5016710;28;20484;-81
2022/05/18 10:46:43;;;;;;;2.87;1.30;;;25.30;99.90;;;;;;5031259;28;20485;-80
2022/05/18 10:49:27;;;;;;;2.00;1.30;;;25.30;99.90;;;;;;5031120;28;20456;-80
2022/05/18 10:51:56;;;;;;;2.27;1.33;;;25.50;99.90;;;;;;5031357;28;20456;-81
2022/05/18 10:54:27;;;;;;;1.50;1.40;;;25.30;99.90;;;;;;5022429;28;21238;-80
2022/05/18 10:57:11;;;;;;;1.40;1.23;;;25.40;99.90;;;;;;5027053;28;20484;-82
2022/05/18 10:59:48;;;;;;;1.83;1.30;;;25.50;99.90;;;;;;5026768;28;20479;-81
2022/05/18 11:02:30;;;;;;;1.70;1.43;;;25.60;99.90;;;;;;5026298;28;20467;-81
2022/05/18 11:05:05;;;;;;;2.20;1.60;;;25.70;99.90;;;;;;5030373;28;20456;-81
2022/05/18 11:07:34;;;;;;;1.70;1.60;;;25.70;99.90;;;;;;5029591;28;20515;-81
2022/05/18 11:10:02;;;;;;;1.60;1.50;;;25.70;99.90;;;;;;5028992;28;20452;-81
2022/05/18 11:12:43;;;;;;;1.70;1.60;;;25.70;99.90;;;;;;5031006;28;20826;-81
2022/05/18 11:15:14;;;;;;;1.60;1.50;;;25.80;99.90;;;;;;5022064;28;20936;-81
2022/05/18 11:17:53;;;;;;;2.20;1.50;;;25.90;99.90;;;;;;5017363;28;20503;-81
2022/05/18 11:20:32;;;;;;;3.07;2.03;;;25.90;99.90;;;;;;5021619;28;20459;-81
2022/05/18 11:23:13;;;;;;;2.87;2.67;;;25.80;99.90;;;;;;5030718;28;20448;-80
2022/05/18 11:25:49;;;;;;;1.77;1.67;;;25.90;99.90;;;;;;5029347;28;20478;-81
2022/05/18 11:28:46;;;;;;;2.13;1.50;;;26.00;99.90;;;;;;5021911;28;20480;-82
2022/05/18 11:31:30;;;;;;;1.40;1.30;;;25.80;99.90;;;;;;5022807;28;20463;-81
2022/05/18 11:34:08;;;;;;;1.70;1.60;;;25.90;99.90;;;;;;5038994;28;20464;-80
2022/05/18 11:36:47;;;;;;;2.70;2.10;;;26.00;99.90;;;;;;5035609;28;20471;-80
2022/05/18 11:39:22;;;;;;;1.97;1.77;;;26.00;99.90;;;;;;5034172;28;20455;-81
2022/05/18 11:42:07;;;;;;;1.40;1.30;;;26.10;99.90;;;;;;5033140;28;20451;-81
2022/05/18 11:44:43;;;;;;;1.60;1.50;;;26.10;99.90;;;;;;5045417;28;20465;-81
2022/05/18 11:47:39;;;;;;;2.10;1.30;;;26.10;99.90;;;;;;5029106;28;20472;-80
2022/05/18 11:50:18;;;;;;;1.93;1.70;;;26.00;99.90;;;;;;5033741;28;20463;-82
2022/05/18 11:53:01;;;;;;;1.53;1.43;;;26.00;99.90;;;;;;5035805;28;20463;-81
2022/05/18 11:55:39;;;;;;;1.93;1.20;;;26.10;99.90;;;;;;5030578;28;20451;-80
2022/05/18 11:58:20;;;;;;;1.53;1.43;;;26.20;99.90;;;;;;5032586;28;21433;-80
2022/05/18 12:00:58;;;;;;;2.03;1.93;;;26.20;99.90;;;;;;5029460;28;20486;-80
2022/05/18 12:04:06;;;;;;;1.37;1.27;;;26.20;99.90;;;;;;5029044;28;20490;-80
2022/05/18 12:07:01;;;;;;;1.53;1.37;;;26.20;99.90;;;;;;5017822;28;20476;-82
2022/05/18 12:09:39;;;;;;;1.73;1.63;;;26.30;99.90;;;;;;5030161;28;20483;-81
2022/05/18 12:12:18;;;;;;;1.57;1.47;;;26.30;99.90;;;;;;5034595;28;20467;-80
2022/05/18 12:14:53;;;;;;;1.40;1.30;;;26.40;99.90;;;;;;5030805;28;20797;-80
2022/05/18 12:17:28;;;;;;;1.20;1.13;;;26.40;99.90;;;;;;5030625;28;21013;-80
2022/05/18 12:20:01;;;;;;;1.50;1.40;;;26.40;99.90;;;;;;5026560;28;20456;-80
2022/05/18 12:22:35;;;;;;;2.17;1.40;;;26.40;99.90;;;;;;5031904;28;20554;-81
2022/05/18 12:25:05;;;;;;;1.40;1.30;;;26.40;99.90;;;;;;5036669;28;20452;-80
2022/05/18 12:27:33;;;;;;;2.57;1.30;;;26.40;99.90;;;;;;5037557;28;20483;-80
2022/05/18 12:30:06;;;;;;;1.53;1.43;;;26.40;99.90;;;;;;5033475;28;20478;-80
2022/05/18 12:32:35;;;;;;;1.47;1.37;;;26.30;99.90;;;;;;5034337;28;20455;-80
2022/05/18 12:35:12;;;;;;;2.13;1.53;;;26.40;99.90;;;;;;5027414;28;20522;-80
2022/05/18 12:37:53;;;;;;;1.50;1.40;;;26.40;99.90;;;;;;5024884;28;20481;-80
2022/05/18 12:40:46;;;;;;;3.43;1.93;;;26.50;99.90;;;;;;5015468;28;20476;-80
2022/05/18 12:43:17;;;;;;;1.93;1.57;;;26.60;99.90;;;;;;5029751;28;20453;-81
2022/05/18 12:45:48;;;;;;;1.90;1.37;;;26.60;99.90;;;;;;5033482;28;20483;-81
2022/05/18 12:48:30;;;;;;;1.43;1.30;;;26.60;99.90;;;;;;5031728;28;20448;-81
2022/05/18 12:51:09;;;;;;;1.30;1.20;;;26.60;99.90;;;;;;5031043;28;20477;-81
2022/05/18 12:53:58;;;;;;;1.93;1.50;;;26.60;99.90;;;;;;5034341;28;20451;-81
2022/05/18 12:56:49;;;;;;;1.57;1.40;;;26.50;99.90;;;;;;5022257;28;22381;-80
2022/05/18 12:59:22;;;;;;;1.20;1.20;;;26.40;99.90;;;;;;5034641;28;20469;-80
2022/05/18 13:02:05;;;;;;;2.27;1.30;;;26.50;99.90;;;;;;5045538;28;20483;-80
2022/05/18 13:04:42;;;;;;;1.87;1.13;;;26.70;99.90;;;;;;5035694;28;20483;-80
2022/05/18 13:07:25;;;;;;;1.30;1.20;;;26.70;99.90;;;;;;5033222;28;20478;-81
2022/05/18 13:10:17;;;;;;;2.67;1.20;;;26.60;99.90;;;;;;5036239;28;20453;-80
2022/05/18 13:12:49;;;;;;;1.30;1.20;;;26.70;99.90;;;;;;5032421;28;20479;-83
2022/05/18 13:15:50;;;;;;;1.53;1.00;;;26.70;99.90;;;;;;5030034;28;20535;-81
2022/05/18 13:18:20;;;;;;;1.70;1.60;;;26.80;99.90;;;;;;5034064;28;21036;-81
2022/05/18 13:20:56;;;;;;;1.40;1.13;;;26.80;99.90;;;;;;5046960;28;20952;-82
2022/05/18 13:23:35;;;;;;;1.40;1.30;;;26.80;99.90;;;;;;5029798;28;20487;-82
2022/05/18 13:26:15;;;;;;;1.20;1.10;;;26.80;99.90;;;;;;5026716;28;20483;-82
2022/05/18 13:28:44;;;;;;;1.83;1.33;;;26.80;99.90;;;;;;5024766;28;20450;-82
2022/05/18 13:31:14;;;;;;;3.20;1.80;;;26.90;99.90;;;;;;5029301;28;20445;-82
2022/05/18 13:33:51;;;;;;;1.73;1.20;;;26.80;99.90;;;;;;5028672;28;20491;-82
2022/05/18 13:36:39;;;;;;;1.30;1.20;;;26.80;99.90;;;;;;5031545;28;20538;-82